sensor_id;sensor_type;location;lat;lon;timestamp;temperature;humidity
35796;DHT22;21916;52.428;13.302;2024-01-15T00:01:50;2.20;99.90
35796;DHT22;21916;52.428;13.302;2024-01-15T00:04:16;2.20;99.90
35796;DHT22;21916;52.428;13.302;2024-01-15T00:06:41;2.20;99.90
35796;DHT22;21916;52.428;13.302;2024-01-15T00:09:07;2.10;99.90
35796;DHT22;21916;52.428;13.302;2024-01-15T00:11:33;2.10;99.90
35796;DHT22;21916;52.428;13.302;2024-01-15T00:13:58;2.00;99.90
35796;DHT22;21916;52.428;13.302;2024-01-15T00:16:24;2.10;99.90
35796;DHT22;21916;52.428;13.302;2024-01-15T00:18:50;2.00;99.90
35796;DHT22;21916;52.428;13.302;2024-01-15T00:21:17;2.10;99.90
35796;DHT22;21916;52.428;13.302;2024-01-15T00:23:43;2.10;99.90
35796;DHT22;21916;52.428;13.302;2024-01-15T00:26:12;2.00;99.90
35796;DHT22;21916;52.428;13.302;2024-01-15T00:28:38;2.00;99.90
35796;DHT22;21916;52.428;13.302;2024-01-15T00:31:05;2.00;99.90
35796;DHT22;21916;52.428;13.302;2024-01-15T00:33:31;2.00;99.90
35796;DHT22;21916;52.428;13.302;2024-01-15T00:35:56;2.10;99.90
35796;DHT22;21916;52.428;13.302;2024-01-15T00:38:22;2.10;99.90
35796;DHT22;21916;52.428;13.302;2024-01-15T00:40:48;2.10;99.90
35796;DHT22;21916;52.428;13.302;2024-01-15T00:43:14;2.10;99.90
35796;DHT22;21916;52.428;13.302;2024-01-15T00:45:40;2.10;99.90
35796;DHT22;21916;52.428;13.302;2024-01-15T00:48:06;2.20;99.90
35796;DHT22;21916;52.428;13.302;2024-01-15T00:50:31;2.20;99.90
35796;DHT22;21916;52.428;13.302;2024-01-15T00:52:57;2.20;99.90
35796;DHT22;21916;52.428;13.302;2024-01-15T00:55:23;2.20;99.90
35796;DHT22;21916;52.428;13.302;2024-01-15T00:57:48;2.30;99.90
35796;DHT22;21916;52.428;13.302;2024-01-15T01:00:14;2.30;99.90
35796;DHT22;21916;52.428;13.302;2024-01-15T01:02:40;2.30;99.90
35796;DHT22;21916;52.428;13.302;2024-01-15T01:05:06;2.30;99.90
35796;DHT22;21916;52.428;13.302;2024-01-15T01:07:32;2.30;99.90
35796;DHT22;21916;52.428;13.302;2024-01-15T01:09:58;2.30;99.90
35796;DHT22;21916;52.428;13.302;2024-01-15T01:12:23;2.30;99.90
35796;DHT22;21916;52.428;13.302;2024-01-15T01:14:49;2.30;99.90
35796;DHT22;21916;52.428;13.302;2024-01-15T01:17:15;2.30;99.90
35796;DHT22;21916;52.428;13.302;2024-01-15T01:19:41;2.20;99.90
35796;DHT22;21916;52.428;13.302;2024-01-15T01:22:06;2.20;99.90
35796;DHT22;21916;52.428;13.302;2024-01-15T01:24:33;2.20;99.90
35796;DHT22;21916;52.428;13.302;2024-01-15T01:26:58;2.20;99.90
35796;DHT22;21916;52.428;13.302;2024-01-15T01:29:24;2.10;99.90
35796;DHT22;21916;52.428;13.302;2024-01-15T01:31:51;2.00;99.90
35796;DHT22;21916;52.428;13.302;2024-01-15T01:34:17;2.00;99.90
35796;DHT22;21916;52.428;13.302;2024-01-15T01:36:43;2.00;99.90
35796;DHT22;21916;52.428;13.302;2024-01-15T01:39:09;1.90;99.90
35796;DHT22;21916;52.428;13.302;2024-01-15T01:41:35;1.80;99.90
35796;DHT22;21916;52.428;13.302;2024-01-15T01:44:01;1.80;99.90
35796;DHT22;21916;52.428;13.302;2024-01-15T01:46:27;1.80;99.90
35796;DHT22;21916;52.428;13.302;2024-01-15T01:48:54;1.70;99.90
35796;DHT22;21916;52.428;13.302;2024-01-15T01:51:22;1.80;99.90
35796;DHT22;21916;52.428;13.302;2024-01-15T01:53:48;1.70;99.90
35796;DHT22;21916;52.428;13.302;2024-01-15T01:56:15;1.70;99.90
35796;DHT22;21916;52.428;13.302;2024-01-15T01:58:42;1.80;99.90
35796;DHT22;21916;52.428;13.302;2024-01-15T02:01:08;1.80;99.90
35796;DHT22;21916;52.428;13.302;2024-01-15T02:03:34;1.80;99.90
35796;DHT22;21916;52.428;13.302;2024-01-15T02:06:00;1.90;99.90
35796;DHT22;21916;52.428;13.302;2024-01-15T02:08:26;1.90;99.90
35796;DHT22;21916;52.428;13.302;2024-01-15T02:10:52;1.80;99.90
35796;DHT22;21916;52.428;13.302;2024-01-15T02:13:19;1.90;99.90
35796;DHT22;21916;52.428;13.302;2024-01-15T02:15:45;1.90;99.90
35796;DHT22;21916;52.428;13.302;2024-01-15T02:18:11;1.90;99.90
35796;DHT22;21916;52.428;13.302;2024-01-15T02:20:37;1.90;99.90
35796;DHT22;21916;52.428;13.302;2024-01-15T02:23:10;1.90;99.90
35796;DHT22;21916;52.428;13.302;2024-01-15T02:25:37;1.90;99.90
35796;DHT22;21916;52.428;13.302;2024-01-15T02:28:04;1.80;99.90
35796;DHT22;21916;52.428;13.302;2024-01-15T02:30:30;1.80;99.90
35796;DHT22;21916;52.428;13.302;2024-01-15T02:32:56;1.80;99.90
35796;DHT22;21916;52.428;13.302;2024-01-15T02:35:23;1.70;99.90
35796;DHT22;21916;52.428;13.302;2024-01-15T02:37:48;1.80;99.90
35796;DHT22;21916;52.428;13.302;2024-01-15T02:40:14;1.70;99.90
35796;DHT22;21916;52.428;13.302;2024-01-15T02:42:40;1.70;99.90
35796;DHT22;21916;52.428;13.302;2024-01-15T02:45:06;1.70;99.90
35796;DHT22;21916;52.428;13.302;2024-01-15T02:47:32;1.70;99.90
35796;DHT22;21916;52.428;13.302;2024-01-15T02:49:57;1.70;99.90
35796;DHT22;21916;52.428;13.302;2024-01-15T02:52:23;1.80;99.90
35796;DHT22;21916;52.428;13.302;2024-01-15T02:54:49;1.70;99.90
35796;DHT22;21916;52.428;13.302;2024-01-15T02:57:14;1.70;99.90
35796;DHT22;21916;52.428;13.302;2024-01-15T02:59:40;1.70;99.90
35796;DHT22;21916;52.428;13.302;2024-01-15T03:02:06;1.70;99.90
35796;DHT22;21916;52.428;13.302;2024-01-15T03:04:31;1.70;99.90
35796;DHT22;21916;52.428;13.302;2024-01-15T03:06:57;1.70;99.90
35796;DHT22;21916;52.428;13.302;2024-01-15T03:09:23;1.70;99.90
35796;DHT22;21916;52.428;13.302;2024-01-15T03:11:48;1.60;99.90
35796;DHT22;21916;52.428;13.302;2024-01-15T03:14:14;1.70;99.90
35796;DHT22;21916;52.428;13.302;2024-01-15T03:16:40;1.70;99.90
35796;DHT22;21916;52.428;13.302;2024-01-15T03:19:07;1.70;99.90
35796;DHT22;21916;52.428;13.302;2024-01-15T03:21:32;1.80;99.90
35796;DHT22;21916;52.428;13.302;2024-01-15T03:23:58;1.80;99.90
35796;DHT22;21916;52.428;13.302;2024-01-15T03:26:23;1.70;99.90
35796;DHT22;21916;52.428;13.302;2024-01-15T03:28:49;1.70;99.90
35796;DHT22;21916;52.428;13.302;2024-01-15T03:31:15;1.80;99.90
35796;DHT22;21916;52.428;13.302;2024-01-15T03:33:40;1.90;99.90
35796;DHT22;21916;52.428;13.302;2024-01-15T03:36:08;1.90;99.90
35796;DHT22;21916;52.428;13.302;2024-01-15T03:38:34;1.90;99.90
35796;DHT22;21916;52.428;13.302;2024-01-15T03:40:59;1.90;99.90
35796;DHT22;21916;52.428;13.302;2024-01-15T03:43:27;1.90;99.90
35796;DHT22;21916;52.428;13.302;2024-01-15T03:45:53;1.90;99.90
35796;DHT22;21916;52.428;13.302;2024-01-15T03:48:20;1.90;99.90
35796;DHT22;21916;52.428;13.302;2024-01-15T03:50:45;2.00;99.90
35796;DHT22;21916;52.428;13.302;2024-01-15T03:53:11;1.90;99.90
35796;DHT22;21916;52.428;13.302;2024-01-15T03:55:37;2.00;99.90
35796;DHT22;21916;52.428;13.302;2024-01-15T03:58:02;2.00;99.90
35796;DHT22;21916;52.428;13.302;2024-01-15T04:00:28;2.00;99.90
35796;DHT22;21916;52.428;13.302;2024-01-15T04:02:54;2.00;99.90
35796;DHT22;21916;52.428;13.302;2024-01-15T04:05:20;2.00;99.90
35796;DHT22;21916;52.428;13.302;2024-01-15T04:07:45;2.00;99.90
35796;DHT22;21916;52.428;13.302;2024-01-15T04:10:11;2.00;99.90
35796;DHT22;21916;52.428;13.302;2024-01-15T04:12:37;2.00;99.90
35796;DHT22;21916;52.428;13.302;2024-01-15T04:15:03;2.00;99.90
35796;DHT22;21916;52.428;13.302;2024-01-15T04:17:29;2.00;99.90
35796;DHT22;21916;52.428;13.302;2024-01-15T04:19:54;2.00;99.90
35796;DHT22;21916;52.428;13.302;2024-01-15T04:22:21;2.00;99.90
35796;DHT22;21916;52.428;13.302;2024-01-15T04:24:47;2.00;99.90
35796;DHT22;21916;52.428;13.302;2024-01-15T04:27:13;2.10;99.90
35796;DHT22;21916;52.428;13.302;2024-01-15T04:29:39;2.10;99.90
35796;DHT22;21916;52.428;13.302;2024-01-15T04:32:05;2.10;99.90
35796;DHT22;21916;52.428;13.302;2024-01-15T04:34:31;2.10;99.90
35796;DHT22;21916;52.428;13.302;2024-01-15T04:36:57;2.10;99.90
35796;DHT22;21916;52.428;13.302;2024-01-15T04:39:22;2.10;99.90
35796;DHT22;21916;52.428;13.302;2024-01-15T04:41:48;2.20;99.90
35796;DHT22;21916;52.428;13.302;2024-01-15T04:44:14;2.20;99.90
35796;DHT22;21916;52.428;13.302;2024-01-15T04:46:39;2.20;99.90
35796;DHT22;21916;52.428;13.302;2024-01-15T04:49:05;2.20;99.90
35796;DHT22;21916;52.428;13.302;2024-01-15T04:51:31;2.20;99.90
35796;DHT22;21916;52.428;13.302;2024-01-15T04:53:56;2.20;99.90
35796;DHT22;21916;52.428;13.302;2024-01-15T04:56:22;2.20;99.90
35796;DHT22;21916;52.428;13.302;2024-01-15T04:58:48;2.20;99.90
35796;DHT22;21916;52.428;13.302;2024-01-15T05:01:16;2.20;99.90
35796;DHT22;21916;52.428;13.302;2024-01-15T05:03:41;2.20;99.90
35796;DHT22;21916;52.428;13.302;2024-01-15T05:06:07;2.10;99.90
35796;DHT22;21916;52.428;13.302;2024-01-15T05:08:34;2.10;99.90
35796;DHT22;21916;52.428;13.302;2024-01-15T05:10:59;2.10;99.90
35796;DHT22;21916;52.428;13.302;2024-01-15T05:13:25;2.10;99.90
35796;DHT22;21916;52.428;13.302;2024-01-15T05:15:51;2.00;99.90
35796;DHT22;21916;52.428;13.302;2024-01-15T05:18:17;1.90;99.90
35796;DHT22;21916;52.428;13.302;2024-01-15T05:20:42;1.90;99.90
35796;DHT22;21916;52.428;13.302;2024-01-15T05:23:08;1.90;99.90
35796;DHT22;21916;52.428;13.302;2024-01-15T05:25:34;2.00;99.90
35796;DHT22;21916;52.428;13.302;2024-01-15T05:27:59;2.00;99.90
35796;DHT22;21916;52.428;13.302;2024-01-15T05:30:25;2.10;99.90
35796;DHT22;21916;52.428;13.302;2024-01-15T05:32:51;2.10;99.90
35796;DHT22;21916;52.428;13.302;2024-01-15T05:35:16;2.20;99.90
35796;DHT22;21916;52.428;13.302;2024-01-15T05:37:44;2.20;99.90
35796;DHT22;21916;52.428;13.302;2024-01-15T05:40:13;2.20;99.90
35796;DHT22;21916;52.428;13.302;2024-01-15T05:42:39;2.20;99.90
35796;DHT22;21916;52.428;13.302;2024-01-15T05:45:06;2.20;99.90
35796;DHT22;21916;52.428;13.302;2024-01-15T05:47:32;2.30;99.90
35796;DHT22;21916;52.428;13.302;2024-01-15T05:49:58;2.30;99.90
35796;DHT22;21916;52.428;13.302;2024-01-15T05:52:24;2.30;99.90
35796;DHT22;21916;52.428;13.302;2024-01-15T05:54:50;2.30;99.90
35796;DHT22;21916;52.428;13.302;2024-01-15T05:57:16;2.30;99.90
35796;DHT22;21916;52.428;13.302;2024-01-15T05:59:44;2.20;99.90
35796;DHT22;21916;52.428;13.302;2024-01-15T06:02:10;2.10;99.90
35796;DHT22;21916;52.428;13.302;2024-01-15T06:04:37;2.10;99.90
35796;DHT22;21916;52.428;13.302;2024-01-15T06:07:02;2.10;99.90
35796;DHT22;21916;52.428;13.302;2024-01-15T06:09:28;2.00;99.90
35796;DHT22;21916;52.428;13.302;2024-01-15T06:11:54;2.10;99.90
35796;DHT22;21916;52.428;13.302;2024-01-15T06:14:20;2.10;99.90
35796;DHT22;21916;52.428;13.302;2024-01-15T06:16:46;2.20;99.90
35796;DHT22;21916;52.428;13.302;2024-01-15T06:19:12;2.20;99.90
35796;DHT22;21916;52.428;13.302;2024-01-15T06:21:38;2.20;99.90
35796;DHT22;21916;52.428;13.302;2024-01-15T06:24:04;2.20;99.90
35796;DHT22;21916;52.428;13.302;2024-01-15T06:26:29;2.30;99.90
35796;DHT22;21916;52.428;13.302;2024-01-15T06:28:56;2.20;99.90
35796;DHT22;21916;52.428;13.302;2024-01-15T06:31:22;2.20;99.90
35796;DHT22;21916;52.428;13.302;2024-01-15T06:33:48;2.10;99.90
35796;DHT22;21916;52.428;13.302;2024-01-15T06:36:14;2.10;99.90
35796;DHT22;21916;52.428;13.302;2024-01-15T06:38:43;2.10;99.90
35796;DHT22;21916;52.428;13.302;2024-01-15T06:41:09;2.10;99.90
35796;DHT22;21916;52.428;13.302;2024-01-15T06:43:35;2.10;99.90
35796;DHT22;21916;52.428;13.302;2024-01-15T06:46:01;2.10;99.90
35796;DHT22;21916;52.428;13.302;2024-01-15T06:48:26;2.10;99.90
35796;DHT22;21916;52.428;13.302;2024-01-15T06:50:52;2.20;99.90
35796;DHT22;21916;52.428;13.302;2024-01-15T06:53:18;2.20;99.90
35796;DHT22;21916;52.428;13.302;2024-01-15T06:55:44;2.20;99.90
35796;DHT22;21916;52.428;13.302;2024-01-15T06:58:09;2.20;99.90
35796;DHT22;21916;52.428;13.302;2024-01-15T07:00:35;2.30;99.90
35796;DHT22;21916;52.428;13.302;2024-01-15T07:03:01;2.20;99.90
35796;DHT22;21916;52.428;13.302;2024-01-15T07:05:27;2.30;99.90
35796;DHT22;21916;52.428;13.302;2024-01-15T07:07:55;2.30;99.90
35796;DHT22;21916;52.428;13.302;2024-01-15T07:10:21;2.30;99.90
35796;DHT22;21916;52.428;13.302;2024-01-15T07:12:46;2.40;99.90
35796;DHT22;21916;52.428;13.302;2024-01-15T07:15:12;2.40;99.90
35796;DHT22;21916;52.428;13.302;2024-01-15T07:17:38;2.40;99.90
35796;DHT22;21916;52.428;13.302;2024-01-15T07:20:06;2.40;99.90
35796;DHT22;21916;52.428;13.302;2024-01-15T07:22:35;2.50;99.90
35796;DHT22;21916;52.428;13.302;2024-01-15T07:25:00;2.50;99.90
35796;DHT22;21916;52.428;13.302;2024-01-15T07:27:26;2.50;99.90
35796;DHT22;21916;52.428;13.302;2024-01-15T07:29:52;2.50;99.90
35796;DHT22;21916;52.428;13.302;2024-01-15T07:32:17;2.50;99.90
35796;DHT22;21916;52.428;13.302;2024-01-15T07:34:43;2.50;99.90
35796;DHT22;21916;52.428;13.302;2024-01-15T07:37:09;2.50;99.90
35796;DHT22;21916;52.428;13.302;2024-01-15T07:39:34;2.50;99.90
35796;DHT22;21916;52.428;13.302;2024-01-15T07:42:00;2.50;99.90
35796;DHT22;21916;52.428;13.302;2024-01-15T07:44:27;2.50;99.90
35796;DHT22;21916;52.428;13.302;2024-01-15T07:46:53;2.50;99.90
35796;DHT22;21916;52.428;13.302;2024-01-15T07:49:19;2.50;99.90
35796;DHT22;21916;52.428;13.302;2024-01-15T07:51:45;2.50;99.90
35796;DHT22;21916;52.428;13.302;2024-01-15T07:54:10;2.50;99.90
35796;DHT22;21916;52.428;13.302;2024-01-15T07:56:53;2.50;99.90
35796;DHT22;21916;52.428;13.302;2024-01-15T07:59:19;2.50;99.90
35796;DHT22;21916;52.428;13.302;2024-01-15T08:01:45;2.50;99.90
35796;DHT22;21916;52.428;13.302;2024-01-15T08:04:10;2.60;99.90
35796;DHT22;21916;52.428;13.302;2024-01-15T08:06:38;2.50;99.90
35796;DHT22;21916;52.428;13.302;2024-01-15T08:09:04;2.50;99.90
35796;DHT22;21916;52.428;13.302;2024-01-15T08:11:30;2.50;99.90
35796;DHT22;21916;52.428;13.302;2024-01-15T08:13:56;2.50;99.90
35796;DHT22;21916;52.428;13.302;2024-01-15T08:16:21;2.50;99.90
35796;DHT22;21916;52.428;13.302;2024-01-15T08:18:47;2.50;99.90
35796;DHT22;21916;52.428;13.302;2024-01-15T08:21:13;2.50;99.90
35796;DHT22;21916;52.428;13.302;2024-01-15T08:23:39;2.50;99.90
35796;DHT22;21916;52.428;13.302;2024-01-15T08:26:05;2.60;99.90
35796;DHT22;21916;52.428;13.302;2024-01-15T08:28:30;2.60;99.90
35796;DHT22;21916;52.428;13.302;2024-01-15T08:30:56;2.50;99.90
35796;DHT22;21916;52.428;13.302;2024-01-15T08:33:22;2.50;99.90
35796;DHT22;21916;52.428;13.302;2024-01-15T08:35:48;2.50;99.90
35796;DHT22;21916;52.428;13.302;2024-01-15T08:38:14;2.50;99.90
35796;DHT22;21916;52.428;13.302;2024-01-15T08:40:40;2.50;99.90
35796;DHT22;21916;52.428;13.302;2024-01-15T08:43:06;2.70;99.90
35796;DHT22;21916;52.428;13.302;2024-01-15T08:45:32;2.70;99.90
35796;DHT22;21916;52.428;13.302;2024-01-15T08:47:58;2.60;99.90
35796;DHT22;21916;52.428;13.302;2024-01-15T08:50:24;2.70;99.90
35796;DHT22;21916;52.428;13.302;2024-01-15T08:52:49;2.60;99.90
35796;DHT22;21916;52.428;13.302;2024-01-15T08:55:15;2.70;99.90
35796;DHT22;21916;52.428;13.302;2024-01-15T08:57:41;2.70;99.90
35796;DHT22;21916;52.428;13.302;2024-01-15T09:00:07;2.70;99.90
35796;DHT22;21916;52.428;13.302;2024-01-15T09:02:35;2.70;99.90
35796;DHT22;21916;52.428;13.302;2024-01-15T09:05:01;2.70;99.90
35796;DHT22;21916;52.428;13.302;2024-01-15T09:07:27;2.70;99.90
35796;DHT22;21916;52.428;13.302;2024-01-15T09:09:53;2.70;99.90
35796;DHT22;21916;52.428;13.302;2024-01-15T09:12:19;2.60;99.90
35796;DHT22;21916;52.428;13.302;2024-01-15T09:14:49;2.60;99.90
35796;DHT22;21916;52.428;13.302;2024-01-15T09:17:16;2.70;99.90
35796;DHT22;21916;52.428;13.302;2024-01-15T09:19:41;2.70;99.90
35796;DHT22;21916;52.428;13.302;2024-01-15T09:22:08;2.70;99.90
35796;DHT22;21916;52.428;13.302;2024-01-15T09:24:33;2.60;99.90
35796;DHT22;21916;52.428;13.302;2024-01-15T09:26:59;2.60;99.90
35796;DHT22;21916;52.428;13.302;2024-01-15T09:29:25;2.60;99.90
35796;DHT22;21916;52.428;13.302;2024-01-15T09:31:51;2.60;99.90
35796;DHT22;21916;52.428;13.302;2024-01-15T09:34:17;2.60;99.90
35796;DHT22;21916;52.428;13.302;2024-01-15T09:36:43;2.70;99.90
35796;DHT22;21916;52.428;13.302;2024-01-15T09:39:09;2.70;99.90
35796;DHT22;21916;52.428;13.302;2024-01-15T09:41:37;2.70;99.90
35796;DHT22;21916;52.428;13.302;2024-01-15T09:44:03;2.70;99.90
35796;DHT22;21916;52.428;13.302;2024-01-15T09:46:31;2.70;99.90
35796;DHT22;21916;52.428;13.302;2024-01-15T09:48:58;2.80;99.90
35796;DHT22;21916;52.428;13.302;2024-01-15T09:51:24;2.80;99.90
35796;DHT22;21916;52.428;13.302;2024-01-15T09:53:50;2.80;99.90
35796;DHT22;21916;52.428;13.302;2024-01-15T09:56:16;2.80;99.90
35796;DHT22;21916;52.428;13.302;2024-01-15T09:58:42;2.80;99.90
35796;DHT22;21916;52.428;13.302;2024-01-15T10:01:08;2.90;99.90
35796;DHT22;21916;52.428;13.302;2024-01-15T10:03:34;2.90;99.90
35796;DHT22;21916;52.428;13.302;2024-01-15T10:06:01;2.90;99.90
35796;DHT22;21916;52.428;13.302;2024-01-15T10:08:28;3.00;99.90
35796;DHT22;21916;52.428;13.302;2024-01-15T10:10:53;3.00;99.90
35796;DHT22;21916;52.428;13.302;2024-01-15T10:13:19;3.00;99.90
35796;DHT22;21916;52.428;13.302;2024-01-15T10:15:46;3.00;99.90
35796;DHT22;21916;52.428;13.302;2024-01-15T10:18:15;3.00;99.90
35796;DHT22;21916;52.428;13.302;2024-01-15T10:20:41;3.00;99.90
35796;DHT22;21916;52.428;13.302;2024-01-15T10:23:08;3.00;99.90
35796;DHT22;21916;52.428;13.302;2024-01-15T10:25:35;3.10;99.90
35796;DHT22;21916;52.428;13.302;2024-01-15T10:28:03;3.10;99.90
35796;DHT22;21916;52.428;13.302;2024-01-15T10:30:29;3.00;99.90
35796;DHT22;21916;52.428;13.302;2024-01-15T10:33:03;3.10;99.90
35796;DHT22;21916;52.428;13.302;2024-01-15T10:35:30;3.10;99.90
35796;DHT22;21916;52.428;13.302;2024-01-15T10:37:56;3.30;99.90
35796;DHT22;21916;52.428;13.302;2024-01-15T10:40:22;3.20;99.90
35796;DHT22;21916;52.428;13.302;2024-01-15T10:42:47;3.10;99.90
35796;DHT22;21916;52.428;13.302;2024-01-15T10:45:14;3.10;99.90
35796;DHT22;21916;52.428;13.302;2024-01-15T10:47:41;3.10;99.90
35796;DHT22;21916;52.428;13.302;2024-01-15T10:50:08;3.10;99.90
35796;DHT22;21916;52.428;13.302;2024-01-15T10:52:39;3.10;99.90
35796;DHT22;21916;52.428;13.302;2024-01-15T10:55:14;3.10;99.90
35796;DHT22;21916;52.428;13.302;2024-01-15T10:57:40;3.20;99.90
35796;DHT22;21916;52.428;13.302;2024-01-15T11:00:06;3.30;99.90
35796;DHT22;21916;52.428;13.302;2024-01-15T11:02:35;3.30;99.90
35796;DHT22;21916;52.428;13.302;2024-01-15T11:05:01;3.40;99.90
35796;DHT22;21916;52.428;13.302;2024-01-15T11:07:27;3.40;99.90
35796;DHT22;21916;52.428;13.302;2024-01-15T11:09:52;3.60;99.90
35796;DHT22;21916;52.428;13.302;2024-01-15T11:12:18;3.70;99.90
35796;DHT22;21916;52.428;13.302;2024-01-15T11:14:49;3.80;99.90
35796;DHT22;21916;52.428;13.302;2024-01-15T11:17:16;3.70;99.90
35796;DHT22;21916;52.428;13.302;2024-01-15T11:19:43;3.60;99.90
35796;DHT22;21916;52.428;13.302;2024-01-15T11:22:52;3.60;99.90
35796;DHT22;21916;52.428;13.302;2024-01-15T11:25:15;3.50;99.90
35796;DHT22;21916;52.428;13.302;2024-01-15T11:27:46;3.20;99.90
35796;DHT22;21916;52.428;13.302;2024-01-15T11:30:18;3.20;99.90
35796;DHT22;21916;52.428;13.302;2024-01-15T11:32:45;3.00;99.90
35796;DHT22;21916;52.428;13.302;2024-01-15T11:35:12;2.90;99.90
35796;DHT22;21916;52.428;13.302;2024-01-15T11:43:02;2.70;99.90
35796;DHT22;21916;52.428;13.302;2024-01-15T11:45:30;2.70;99.90
35796;DHT22;21916;52.428;13.302;2024-01-15T11:50:34;2.80;99.90
35796;DHT22;21916;52.428;13.302;2024-01-15T11:53:01;2.70;99.90
35796;DHT22;21916;52.428;13.302;2024-01-15T11:55:35;2.70;99.90
35796;DHT22;21916;52.428;13.302;2024-01-15T11:58:08;2.70;99.90
35796;DHT22;21916;52.428;13.302;2024-01-15T12:00:42;2.70;99.90
35796;DHT22;21916;52.428;13.302;2024-01-15T12:03:08;2.60;99.90
35796;DHT22;21916;52.428;13.302;2024-01-15T12:05:37;2.70;99.90
35796;DHT22;21916;52.428;13.302;2024-01-15T12:08:03;2.70;99.90
35796;DHT22;21916;52.428;13.302;2024-01-15T12:10:29;2.60;99.90
35796;DHT22;21916;52.428;13.302;2024-01-15T12:13:09;2.60;99.90
35796;DHT22;21916;52.428;13.302;2024-01-15T12:15:36;2.60;99.90
35796;DHT22;21916;52.428;13.302;2024-01-15T12:18:03;2.60;99.90
35796;DHT22;21916;52.428;13.302;2024-01-15T12:20:30;2.60;99.90
35796;DHT22;21916;52.428;13.302;2024-01-15T12:22:56;2.60;99.90
35796;DHT22;21916;52.428;13.302;2024-01-15T12:25:22;2.60;99.90
35796;DHT22;21916;52.428;13.302;2024-01-15T12:27:48;2.50;99.90
35796;DHT22;21916;52.428;13.302;2024-01-15T12:30:14;2.60;99.90
35796;DHT22;21916;52.428;13.302;2024-01-15T12:32:44;2.60;99.90
35796;DHT22;21916;52.428;13.302;2024-01-15T12:35:10;2.60;99.90
35796;DHT22;21916;52.428;13.302;2024-01-15T12:37:37;2.60;99.90
35796;DHT22;21916;52.428;13.302;2024-01-15T12:40:08;2.60;99.90
35796;DHT22;21916;52.428;13.302;2024-01-15T12:42:41;2.60;99.90
35796;DHT22;21916;52.428;13.302;2024-01-15T12:45:09;2.50;99.90
35796;DHT22;21916;52.428;13.302;2024-01-15T12:47:35;2.50;99.90
35796;DHT22;21916;52.428;13.302;2024-01-15T12:50:01;2.50;99.90
35796;DHT22;21916;52.428;13.302;2024-01-15T12:52:28;2.40;99.90
35796;DHT22;21916;52.428;13.302;2024-01-15T12:54:54;2.30;99.90
35796;DHT22;21916;52.428;13.302;2024-01-15T12:57:20;2.20;99.90
35796;DHT22;21916;52.428;13.302;2024-01-15T12:59:46;2.30;99.90
35796;DHT22;21916;52.428;13.302;2024-01-15T13:02:13;2.20;99.90
35796;DHT22;21916;52.428;13.302;2024-01-15T13:04:39;2.20;99.90
35796;DHT22;21916;52.428;13.302;2024-01-15T13:07:06;2.30;99.90
35796;DHT22;21916;52.428;13.302;2024-01-15T13:09:32;2.20;99.90
35796;DHT22;21916;52.428;13.302;2024-01-15T13:11:59;2.30;99.90
35796;DHT22;21916;52.428;13.302;2024-01-15T13:14:25;2.40;99.90
35796;DHT22;21916;52.428;13.302;2024-01-15T13:16:50;2.30;99.90
35796;DHT22;21916;52.428;13.302;2024-01-15T13:19:17;2.30;99.90
35796;DHT22;21916;52.428;13.302;2024-01-15T13:21:42;2.30;99.90
35796;DHT22;21916;52.428;13.302;2024-01-15T13:24:08;2.20;99.90
35796;DHT22;21916;52.428;13.302;2024-01-15T13:26:35;2.30;99.90
35796;DHT22;21916;52.428;13.302;2024-01-15T13:29:04;2.40;99.90
35796;DHT22;21916;52.428;13.302;2024-01-15T13:31:30;2.40;99.90
35796;DHT22;21916;52.428;13.302;2024-01-15T13:33:56;2.30;99.90
35796;DHT22;21916;52.428;13.302;2024-01-15T13:36:22;2.40;99.90
35796;DHT22;21916;52.428;13.302;2024-01-15T13:38:49;2.40;99.90
35796;DHT22;21916;52.428;13.302;2024-01-15T13:41:16;2.40;99.90
35796;DHT22;21916;52.428;13.302;2024-01-15T13:43:41;2.40;99.90
35796;DHT22;21916;52.428;13.302;2024-01-15T13:46:07;2.40;99.90
35796;DHT22;21916;52.428;13.302;2024-01-15T13:48:33;2.40;99.90
35796;DHT22;21916;52.428;13.302;2024-01-15T13:50:58;2.30;99.90
35796;DHT22;21916;52.428;13.302;2024-01-15T13:53:25;2.30;99.90
35796;DHT22;21916;52.428;13.302;2024-01-15T13:55:51;2.40;99.90
35796;DHT22;21916;52.428;13.302;2024-01-15T13:58:17;2.30;99.90
35796;DHT22;21916;52.428;13.302;2024-01-15T14:00:44;2.30;99.90
35796;DHT22;21916;52.428;13.302;2024-01-15T14:03:09;2.30;99.90
35796;DHT22;21916;52.428;13.302;2024-01-15T14:05:35;2.30;99.90
35796;DHT22;21916;52.428;13.302;2024-01-15T14:08:01;2.30;99.90
35796;DHT22;21916;52.428;13.302;2024-01-15T14:10:27;2.30;99.90
35796;DHT22;21916;52.428;13.302;2024-01-15T14:12:53;2.20;99.90
35796;DHT22;21916;52.428;13.302;2024-01-15T14:15:18;2.30;99.90
35796;DHT22;21916;52.428;13.302;2024-01-15T14:17:46;2.10;99.90
35796;DHT22;21916;52.428;13.302;2024-01-15T14:20:12;2.10;99.90
35796;DHT22;21916;52.428;13.302;2024-01-15T14:22:38;2.10;99.90
35796;DHT22;21916;52.428;13.302;2024-01-15T14:25:04;2.10;99.90
35796;DHT22;21916;52.428;13.302;2024-01-15T14:27:30;2.10;99.90
35796;DHT22;21916;52.428;13.302;2024-01-15T14:29:56;2.00;99.90
35796;DHT22;21916;52.428;13.302;2024-01-15T14:32:22;2.00;99.90
35796;DHT22;21916;52.428;13.302;2024-01-15T14:34:48;2.00;99.90
35796;DHT22;21916;52.428;13.302;2024-01-15T14:37:14;2.00;99.90
35796;DHT22;21916;52.428;13.302;2024-01-15T14:39:40;2.10;99.90
35796;DHT22;21916;52.428;13.302;2024-01-15T14:42:06;2.00;99.90
35796;DHT22;21916;52.428;13.302;2024-01-15T14:44:31;2.00;99.90
35796;DHT22;21916;52.428;13.302;2024-01-15T14:46:59;2.00;99.90
35796;DHT22;21916;52.428;13.302;2024-01-15T14:49:24;2.00;99.90
35796;DHT22;21916;52.428;13.302;2024-01-15T14:51:50;2.00;99.90
35796;DHT22;21916;52.428;13.302;2024-01-15T14:54:16;2.00;99.90
35796;DHT22;21916;52.428;13.302;2024-01-15T14:56:42;2.00;99.90
35796;DHT22;21916;52.428;13.302;2024-01-15T14:59:10;2.00;99.90
35796;DHT22;21916;52.428;13.302;2024-01-15T15:01:37;2.00;99.90
35796;DHT22;21916;52.428;13.302;2024-01-15T15:04:03;2.00;99.90
35796;DHT22;21916;52.428;13.302;2024-01-15T15:06:28;2.10;99.90
35796;DHT22;21916;52.428;13.302;2024-01-15T15:08:54;2.10;99.90
35796;DHT22;21916;52.428;13.302;2024-01-15T15:11:22;2.10;99.90
35796;DHT22;21916;52.428;13.302;2024-01-15T15:13:48;2.10;99.90
35796;DHT22;21916;52.428;13.302;2024-01-15T15:16:15;2.10;99.90
35796;DHT22;21916;52.428;13.302;2024-01-15T15:18:41;2.10;99.90
35796;DHT22;21916;52.428;13.302;2024-01-15T15:21:09;2.10;99.90
35796;DHT22;21916;52.428;13.302;2024-01-15T15:23:35;2.10;99.90
35796;DHT22;21916;52.428;13.302;2024-01-15T15:26:01;2.10;99.90
35796;DHT22;21916;52.428;13.302;2024-01-15T15:28:27;2.00;99.90
35796;DHT22;21916;52.428;13.302;2024-01-15T15:30:53;2.00;99.90
35796;DHT22;21916;52.428;13.302;2024-01-15T15:33:18;2.00;99.90